Terminal Aerodrome Forecast
Issued by NWS

Home | Current Version | Previous Version | Text Only | Print | Product List | Glossary On
Versions: 1 2 3 4 5 6 7 8 9 10 11 12 13 14 15 16 17 18 19
000
FTUS46 KPDT 102300
TAFBDN
TAF
KBDN 102320Z 1100/1124 35011KT P6SM SKC
     FM110600 22006KT P6SM SKC
     FM111200 VRB04KT P6SM FEW150 SCT250
     FM111800 VRB06KT P6SM FEW080 SCT150
     FM112100 35010KT P6SM VCTS BKN080CB BKN150=

USA.gov is the U.S. government's official web portal to all federal, state and local government web resources and services.